sensor_id;sensor_type;location;lat;lon;timestamp;P1;durP1;ratioP1;P2;durP2;ratioP2
22768;SDS011;13001;51.968;5.918;2023-03-14T00:00:24;218.43;;;203.97;;
22768;SDS011;13001;51.968;5.918;2023-03-14T00:02:52;217.45;;;202.87;;
22768;SDS011;13001;51.968;5.918;2023-03-14T00:05:20;214.45;;;200.13;;
22768;SDS011;13001;51.968;5.918;2023-03-14T00:07:47;210.17;;;196.32;;
22768;SDS011;13001;51.968;5.918;2023-03-14T00:10:15;220.05;;;205.47;;
22768;SDS011;13001;51.968;5.918;2023-03-14T00:12:42;213.97;;;199.65;;
22768;SDS011;13001;51.968;5.918;2023-03-14T00:15:09;223.45;;;208.55;;
22768;SDS011;13001;51.968;5.918;2023-03-14T00:17:37;225.47;;;210.72;;
22768;SDS011;13001;51.968;5.918;2023-03-14T00:20:05;216.10;;;201.87;;
22768;SDS011;13001;51.968;5.918;2023-03-14T00:22:38;223.00;;;208.35;;
22768;SDS011;13001;51.968;5.918;2023-03-14T00:25:05;222.05;;;207.43;;
22768;SDS011;13001;51.968;5.918;2023-03-14T00:27:33;228.62;;;213.62;;
22768;SDS011;13001;51.968;5.918;2023-03-14T00:30:00;208.43;;;195.03;;
22768;SDS011;13001;51.968;5.918;2023-03-14T00:32:28;230.25;;;215.25;;
22768;SDS011;13001;51.968;5.918;2023-03-14T00:34:55;216.85;;;203.10;;
22768;SDS011;13001;51.968;5.918;2023-03-14T00:37:22;210.28;;;196.93;;
22768;SDS011;13001;51.968;5.918;2023-03-14T00:39:51;207.37;;;193.87;;
22768;SDS011;13001;51.968;5.918;2023-03-14T00:42:18;223.03;;;208.55;;
22768;SDS011;13001;51.968;5.918;2023-03-14T00:44:45;205.60;;;191.97;;
22768;SDS011;13001;51.968;5.918;2023-03-14T00:47:13;208.25;;;194.62;;
22768;SDS011;13001;51.968;5.918;2023-03-14T00:49:41;216.27;;;202.35;;
22768;SDS011;13001;51.968;5.918;2023-03-14T00:52:09;209.98;;;196.45;;
22768;SDS011;13001;51.968;5.918;2023-03-14T00:54:37;222.40;;;207.98;;
22768;SDS011;13001;51.968;5.918;2023-03-14T00:57:04;238.82;;;223.53;;
22768;SDS011;13001;51.968;5.918;2023-03-14T00:59:31;237.05;;;221.72;;
22768;SDS011;13001;51.968;5.918;2023-03-14T01:01:58;236.45;;;221.22;;
22768;SDS011;13001;51.968;5.918;2023-03-14T01:04:26;224.92;;;210.57;;
22768;SDS011;13001;51.968;5.918;2023-03-14T01:06:53;225.23;;;210.63;;
22768;SDS011;13001;51.968;5.918;2023-03-14T01:09:20;213.45;;;199.85;;
22768;SDS011;13001;51.968;5.918;2023-03-14T01:11:47;217.72;;;203.90;;
22768;SDS011;13001;51.968;5.918;2023-03-14T01:14:15;233.85;;;218.80;;
22768;SDS011;13001;51.968;5.918;2023-03-14T01:16:42;229.13;;;214.93;;
22768;SDS011;13001;51.968;5.918;2023-03-14T01:19:09;226.37;;;212.12;;
22768;SDS011;13001;51.968;5.918;2023-03-14T01:21:36;235.53;;;220.65;;
22768;SDS011;13001;51.968;5.918;2023-03-14T01:24:04;226.98;;;212.80;;
22768;SDS011;13001;51.968;5.918;2023-03-14T01:26:33;249.77;;;233.63;;
22768;SDS011;13001;51.968;5.918;2023-03-14T01:29:00;236.72;;;221.43;;
22768;SDS011;13001;51.968;5.918;2023-03-14T01:31:28;228.90;;;213.60;;
22768;SDS011;13001;51.968;5.918;2023-03-14T01:33:55;248.22;;;231.82;;
22768;SDS011;13001;51.968;5.918;2023-03-14T01:36:23;258.50;;;241.13;;
22768;SDS011;13001;51.968;5.918;2023-03-14T01:38:50;242.20;;;226.25;;
22768;SDS011;13001;51.968;5.918;2023-03-14T01:41:18;246.28;;;230.30;;
22768;SDS011;13001;51.968;5.918;2023-03-14T01:43:46;217.37;;;203.30;;
22768;SDS011;13001;51.968;5.918;2023-03-14T01:46:28;236.05;;;220.63;;
22768;SDS011;13001;51.968;5.918;2023-03-14T01:49:05;230.07;;;215.03;;
22768;SDS011;13001;51.968;5.918;2023-03-14T01:51:40;230.95;;;216.27;;
22768;SDS011;13001;51.968;5.918;2023-03-14T01:54:08;225.57;;;211.33;;
22768;SDS011;13001;51.968;5.918;2023-03-14T01:56:37;225.30;;;210.93;;
22768;SDS011;13001;51.968;5.918;2023-03-14T01:59:04;208.57;;;195.18;;
22768;SDS011;13001;51.968;5.918;2023-03-14T02:01:33;194.50;;;182.05;;
22768;SDS011;13001;51.968;5.918;2023-03-14T02:04:03;198.45;;;185.80;;
22768;SDS011;13001;51.968;5.918;2023-03-14T02:06:35;193.87;;;181.57;;
22768;SDS011;13001;51.968;5.918;2023-03-14T02:09:00;199.20;;;186.30;;
22768;SDS011;13001;51.968;5.918;2023-03-14T02:11:29;224.65;;;211.18;;
22768;SDS011;13001;51.968;5.918;2023-03-14T02:13:57;222.55;;;209.03;;
22768;SDS011;13001;51.968;5.918;2023-03-14T02:16:25;230.90;;;217.20;;
22768;SDS011;13001;51.968;5.918;2023-03-14T02:18:53;216.97;;;203.37;;
22768;SDS011;13001;51.968;5.918;2023-03-14T02:21:26;227.93;;;214.43;;
22768;SDS011;13001;51.968;5.918;2023-03-14T02:23:58;250.40;;;235.60;;
22768;SDS011;13001;51.968;5.918;2023-03-14T02:26:40;255.98;;;240.90;;
22768;SDS011;13001;51.968;5.918;2023-03-14T02:29:07;248.65;;;234.43;;
22768;SDS011;13001;51.968;5.918;2023-03-14T02:31:34;274.67;;;258.70;;
22768;SDS011;13001;51.968;5.918;2023-03-14T02:34:02;300.00;;;282.12;;
22768;SDS011;13001;51.968;5.918;2023-03-14T02:36:30;312.17;;;293.12;;
22768;SDS011;13001;51.968;5.918;2023-03-14T02:39:16;353.35;;;331.02;;
22768;SDS011;13001;51.968;5.918;2023-03-14T02:41:44;404.48;;;378.18;;
22768;SDS011;13001;51.968;5.918;2023-03-14T02:44:12;407.27;;;380.42;;
22768;SDS011;13001;51.968;5.918;2023-03-14T02:46:39;415.25;;;387.40;;
22768;SDS011;13001;51.968;5.918;2023-03-14T02:49:14;426.05;;;397.07;;
22768;SDS011;13001;51.968;5.918;2023-03-14T02:51:38;422.07;;;393.37;;
22768;SDS011;13001;51.968;5.918;2023-03-14T02:54:06;416.42;;;388.20;;
22768;SDS011;13001;51.968;5.918;2023-03-14T02:56:33;430.48;;;400.50;;
22768;SDS011;13001;51.968;5.918;2023-03-14T02:59:04;420.60;;;391.52;;
22768;SDS011;13001;51.968;5.918;2023-03-14T03:01:32;424.27;;;395.10;;
22768;SDS011;13001;51.968;5.918;2023-03-14T03:04:00;404.92;;;377.82;;
22768;SDS011;13001;51.968;5.918;2023-03-14T03:06:30;393.23;;;366.63;;
22768;SDS011;13001;51.968;5.918;2023-03-14T03:08:57;378.45;;;353.23;;
22768;SDS011;13001;51.968;5.918;2023-03-14T03:11:24;369.75;;;345.20;;
22768;SDS011;13001;51.968;5.918;2023-03-14T03:13:51;361.65;;;338.15;;
22768;SDS011;13001;51.968;5.918;2023-03-14T03:16:19;342.02;;;320.00;;
22768;SDS011;13001;51.968;5.918;2023-03-14T03:18:46;343.63;;;321.55;;
22768;SDS011;13001;51.968;5.918;2023-03-14T03:21:13;333.80;;;312.50;;
22768;SDS011;13001;51.968;5.918;2023-03-14T03:23:40;325.68;;;305.43;;
22768;SDS011;13001;51.968;5.918;2023-03-14T03:26:09;333.75;;;312.15;;
22768;SDS011;13001;51.968;5.918;2023-03-14T03:28:38;336.15;;;314.40;;
22768;SDS011;13001;51.968;5.918;2023-03-14T03:31:06;332.50;;;311.20;;
22768;SDS011;13001;51.968;5.918;2023-03-14T03:33:34;346.40;;;324.20;;
22768;SDS011;13001;51.968;5.918;2023-03-14T03:36:02;334.18;;;312.32;;
22768;SDS011;13001;51.968;5.918;2023-03-14T03:38:30;321.77;;;301.25;;
22768;SDS011;13001;51.968;5.918;2023-03-14T03:40:58;317.45;;;297.17;;
22768;SDS011;13001;51.968;5.918;2023-03-14T03:43:25;293.33;;;275.27;;
22768;SDS011;13001;51.968;5.918;2023-03-14T03:45:53;290.82;;;272.93;;
22768;SDS011;13001;51.968;5.918;2023-03-14T03:48:21;268.93;;;252.57;;
22768;SDS011;13001;51.968;5.918;2023-03-14T03:50:49;241.95;;;227.53;;
22768;SDS011;13001;51.968;5.918;2023-03-14T03:53:16;237.97;;;223.87;;
22768;SDS011;13001;51.968;5.918;2023-03-14T03:55:43;225.18;;;211.72;;
22768;SDS011;13001;51.968;5.918;2023-03-14T03:58:10;216.95;;;203.75;;
22768;SDS011;13001;51.968;5.918;2023-03-14T04:00:38;221.77;;;208.07;;
22768;SDS011;13001;51.968;5.918;2023-03-14T04:03:06;202.00;;;189.57;;
22768;SDS011;13001;51.968;5.918;2023-03-14T04:05:36;195.97;;;183.87;;
22768;SDS011;13001;51.968;5.918;2023-03-14T04:08:03;195.32;;;183.25;;
22768;SDS011;13001;51.968;5.918;2023-03-14T04:10:33;203.92;;;191.43;;
22768;SDS011;13001;51.968;5.918;2023-03-14T04:12:59;192.13;;;180.32;;
22768;SDS011;13001;51.968;5.918;2023-03-14T04:15:27;196.28;;;184.25;;
22768;SDS011;13001;51.968;5.918;2023-03-14T04:17:57;182.12;;;170.97;;
22768;SDS011;13001;51.968;5.918;2023-03-14T04:20:25;185.97;;;174.42;;
22768;SDS011;13001;51.968;5.918;2023-03-14T04:22:54;185.35;;;174.05;;
22768;SDS011;13001;51.968;5.918;2023-03-14T04:25:21;186.15;;;174.95;;
22768;SDS011;13001;51.968;5.918;2023-03-14T04:27:50;186.37;;;174.75;;
22768;SDS011;13001;51.968;5.918;2023-03-14T04:30:17;191.73;;;179.90;;
22768;SDS011;13001;51.968;5.918;2023-03-14T04:32:44;188.47;;;176.97;;
22768;SDS011;13001;51.968;5.918;2023-03-14T04:35:11;181.60;;;170.35;;
22768;SDS011;13001;51.968;5.918;2023-03-14T04:37:39;187.40;;;175.68;;
22768;SDS011;13001;51.968;5.918;2023-03-14T04:40:08;181.35;;;169.77;;
22768;SDS011;13001;51.968;5.918;2023-03-14T04:42:36;178.82;;;167.32;;
22768;SDS011;13001;51.968;5.918;2023-03-14T04:45:04;184.78;;;173.15;;
22768;SDS011;13001;51.968;5.918;2023-03-14T04:47:33;183.23;;;171.87;;
22768;SDS011;13001;51.968;5.918;2023-03-14T04:50:00;186.00;;;174.53;;
22768;SDS011;13001;51.968;5.918;2023-03-14T04:52:28;183.07;;;171.77;;
22768;SDS011;13001;51.968;5.918;2023-03-14T04:54:55;181.72;;;170.12;;
22768;SDS011;13001;51.968;5.918;2023-03-14T04:57:22;183.07;;;171.60;;
22768;SDS011;13001;51.968;5.918;2023-03-14T04:59:51;185.70;;;173.90;;
22768;SDS011;13001;51.968;5.918;2023-03-14T05:02:18;177.53;;;166.40;;
22768;SDS011;13001;51.968;5.918;2023-03-14T05:04:46;181.02;;;169.45;;
22768;SDS011;13001;51.968;5.918;2023-03-14T05:07:13;183.85;;;172.15;;
22768;SDS011;13001;51.968;5.918;2023-03-14T05:09:40;189.07;;;177.12;;
22768;SDS011;13001;51.968;5.918;2023-03-14T05:12:11;190.73;;;178.47;;
22768;SDS011;13001;51.968;5.918;2023-03-14T05:14:37;180.18;;;168.78;;
22768;SDS011;13001;51.968;5.918;2023-03-14T05:17:06;194.47;;;182.43;;
22768;SDS011;13001;51.968;5.918;2023-03-14T05:19:34;182.10;;;170.75;;
22768;SDS011;13001;51.968;5.918;2023-03-14T05:22:02;182.72;;;171.28;;
22768;SDS011;13001;51.968;5.918;2023-03-14T05:24:29;173.85;;;163.15;;
22768;SDS011;13001;51.968;5.918;2023-03-14T05:26:57;177.27;;;166.20;;
22768;SDS011;13001;51.968;5.918;2023-03-14T05:29:24;172.55;;;161.73;;
22768;SDS011;13001;51.968;5.918;2023-03-14T05:31:51;172.62;;;162.18;;
22768;SDS011;13001;51.968;5.918;2023-03-14T05:34:18;176.72;;;165.97;;
22768;SDS011;13001;51.968;5.918;2023-03-14T05:36:46;175.07;;;164.67;;
22768;SDS011;13001;51.968;5.918;2023-03-14T05:39:13;177.43;;;166.77;;
22768;SDS011;13001;51.968;5.918;2023-03-14T05:41:40;170.50;;;160.07;;
22768;SDS011;13001;51.968;5.918;2023-03-14T05:44:07;170.62;;;160.12;;
22768;SDS011;13001;51.968;5.918;2023-03-14T05:46:35;171.17;;;160.70;;
22768;SDS011;13001;51.968;5.918;2023-03-14T05:49:02;169.05;;;158.85;;
22768;SDS011;13001;51.968;5.918;2023-03-14T05:51:29;165.60;;;155.50;;
22768;SDS011;13001;51.968;5.918;2023-03-14T05:53:56;169.03;;;158.80;;
22768;SDS011;13001;51.968;5.918;2023-03-14T05:56:25;178.32;;;167.70;;
22768;SDS011;13001;51.968;5.918;2023-03-14T05:58:52;172.20;;;161.45;;
22768;SDS011;13001;51.968;5.918;2023-03-14T06:01:19;173.27;;;162.83;;
22768;SDS011;13001;51.968;5.918;2023-03-14T06:03:48;174.27;;;164.03;;
22768;SDS011;13001;51.968;5.918;2023-03-14T06:06:15;182.77;;;171.60;;
22768;SDS011;13001;51.968;5.918;2023-03-14T06:08:42;184.50;;;173.32;;
22768;SDS011;13001;51.968;5.918;2023-03-14T06:11:15;196.85;;;185.22;;
22768;SDS011;13001;51.968;5.918;2023-03-14T06:13:43;215.27;;;202.63;;
22768;SDS011;13001;51.968;5.918;2023-03-14T06:16:10;224.82;;;211.52;;
22768;SDS011;13001;51.968;5.918;2023-03-14T06:18:37;239.40;;;225.05;;
22768;SDS011;13001;51.968;5.918;2023-03-14T06:21:07;257.33;;;241.57;;
22768;SDS011;13001;51.968;5.918;2023-03-14T06:23:34;279.63;;;262.12;;
22768;SDS011;13001;51.968;5.918;2023-03-14T06:26:03;303.18;;;283.90;;
22768;SDS011;13001;51.968;5.918;2023-03-14T06:28:33;326.25;;;305.67;;
22768;SDS011;13001;51.968;5.918;2023-03-14T06:31:00;340.45;;;318.55;;
22768;SDS011;13001;51.968;5.918;2023-03-14T06:33:27;363.45;;;339.57;;
22768;SDS011;13001;51.968;5.918;2023-03-14T06:35:55;377.85;;;352.90;;
22768;SDS011;13001;51.968;5.918;2023-03-14T06:38:22;389.50;;;363.18;;
22768;SDS011;13001;51.968;5.918;2023-03-14T06:40:49;387.08;;;360.73;;
22768;SDS011;13001;51.968;5.918;2023-03-14T06:43:17;418.23;;;389.45;;
22768;SDS011;13001;51.968;5.918;2023-03-14T06:45:45;427.45;;;397.90;;
22768;SDS011;13001;51.968;5.918;2023-03-14T06:48:12;415.47;;;386.67;;
22768;SDS011;13001;51.968;5.918;2023-03-14T06:50:40;437.80;;;407.95;;
22768;SDS011;13001;51.968;5.918;2023-03-14T06:53:07;446.45;;;415.77;;
22768;SDS011;13001;51.968;5.918;2023-03-14T06:55:34;466.75;;;434.95;;
22768;SDS011;13001;51.968;5.918;2023-03-14T06:58:01;485.82;;;452.52;;
22768;SDS011;13001;51.968;5.918;2023-03-14T07:00:29;492.80;;;459.13;;
22768;SDS011;13001;51.968;5.918;2023-03-14T07:02:57;509.33;;;474.45;;
22768;SDS011;13001;51.968;5.918;2023-03-14T07:05:25;530.35;;;494.25;;
22768;SDS011;13001;51.968;5.918;2023-03-14T07:07:53;519.67;;;484.43;;
22768;SDS011;13001;51.968;5.918;2023-03-14T07:10:20;532.55;;;496.33;;
22768;SDS011;13001;51.968;5.918;2023-03-14T07:12:48;539.55;;;502.65;;
22768;SDS011;13001;51.968;5.918;2023-03-14T07:15:15;554.20;;;516.38;;
22768;SDS011;13001;51.968;5.918;2023-03-14T07:17:42;536.52;;;500.30;;
22768;SDS011;13001;51.968;5.918;2023-03-14T07:20:10;511.15;;;476.05;;
22768;SDS011;13001;51.968;5.918;2023-03-14T07:22:37;478.57;;;445.57;;
22768;SDS011;13001;51.968;5.918;2023-03-14T07:25:04;445.10;;;414.32;;
22768;SDS011;13001;51.968;5.918;2023-03-14T07:27:32;445.48;;;414.70;;
22768;SDS011;13001;51.968;5.918;2023-03-14T07:29:59;448.40;;;417.57;;
22768;SDS011;13001;51.968;5.918;2023-03-14T07:32:26;428.52;;;399.25;;
22768;SDS011;13001;51.968;5.918;2023-03-14T07:34:54;389.10;;;363.18;;
22768;SDS011;13001;51.968;5.918;2023-03-14T07:37:21;320.95;;;301.37;;
22768;SDS011;13001;51.968;5.918;2023-03-14T07:39:48;307.02;;;288.60;;
22768;SDS011;13001;51.968;5.918;2023-03-14T07:42:16;307.92;;;289.27;;
22768;SDS011;13001;51.968;5.918;2023-03-14T07:44:43;321.45;;;301.95;;
22768;SDS011;13001;51.968;5.918;2023-03-14T07:47:10;257.77;;;242.82;;
22768;SDS011;13001;51.968;5.918;2023-03-14T07:49:39;220.97;;;208.00;;
22768;SDS011;13001;51.968;5.918;2023-03-14T07:52:06;207.62;;;195.53;;
22768;SDS011;13001;51.968;5.918;2023-03-14T07:54:33;213.75;;;201.35;;
22768;SDS011;13001;51.968;5.918;2023-03-14T07:57:01;208.05;;;195.85;;
22768;SDS011;13001;51.968;5.918;2023-03-14T07:59:28;218.52;;;205.62;;
22768;SDS011;13001;51.968;5.918;2023-03-14T08:01:55;212.65;;;200.18;;
22768;SDS011;13001;51.968;5.918;2023-03-14T08:04:22;212.02;;;199.82;;
22768;SDS011;13001;51.968;5.918;2023-03-14T08:06:50;215.57;;;202.87;;
22768;SDS011;13001;51.968;5.918;2023-03-14T08:09:17;221.77;;;208.63;;
22768;SDS011;13001;51.968;5.918;2023-03-14T08:11:45;232.70;;;219.00;;
22768;SDS011;13001;51.968;5.918;2023-03-14T08:14:12;244.33;;;229.60;;
22768;SDS011;13001;51.968;5.918;2023-03-14T08:16:39;271.57;;;254.93;;
22768;SDS011;13001;51.968;5.918;2023-03-14T08:19:07;253.62;;;238.25;;
22768;SDS011;13001;51.968;5.918;2023-03-14T08:21:34;263.85;;;247.70;;
22768;SDS011;13001;51.968;5.918;2023-03-14T08:24:02;274.40;;;257.63;;
22768;SDS011;13001;51.968;5.918;2023-03-14T08:26:29;237.27;;;222.93;;
22768;SDS011;13001;51.968;5.918;2023-03-14T08:28:56;240.97;;;226.52;;
22768;SDS011;13001;51.968;5.918;2023-03-14T08:31:23;224.25;;;211.03;;
22768;SDS011;13001;51.968;5.918;2023-03-14T08:33:51;216.08;;;203.18;;
22768;SDS011;13001;51.968;5.918;2023-03-14T08:36:19;207.75;;;195.62;;
22768;SDS011;13001;51.968;5.918;2023-03-14T08:38:46;202.65;;;190.82;;
22768;SDS011;13001;51.968;5.918;2023-03-14T08:41:13;208.85;;;196.75;;
22768;SDS011;13001;51.968;5.918;2023-03-14T08:43:41;213.72;;;201.30;;
22768;SDS011;13001;51.968;5.918;2023-03-14T08:46:09;208.53;;;196.18;;
22768;SDS011;13001;51.968;5.918;2023-03-14T08:48:39;208.00;;;195.77;;
22768;SDS011;13001;51.968;5.918;2023-03-14T08:51:07;217.27;;;204.37;;
22768;SDS011;13001;51.968;5.918;2023-03-14T08:53:36;213.85;;;201.05;;
22768;SDS011;13001;51.968;5.918;2023-03-14T08:56:04;214.78;;;201.88;;
22768;SDS011;13001;51.968;5.918;2023-03-14T08:58:32;213.82;;;200.90;;
22768;SDS011;13001;51.968;5.918;2023-03-14T09:01:00;211.97;;;199.27;;
22768;SDS011;13001;51.968;5.918;2023-03-14T09:03:27;226.27;;;212.08;;
22768;SDS011;13001;51.968;5.918;2023-03-14T09:05:54;206.87;;;193.87;;
22768;SDS011;13001;51.968;5.918;2023-03-14T09:08:23;192.03;;;179.45;;
22768;SDS011;13001;51.968;5.918;2023-03-14T09:10:51;184.72;;;173.20;;
22768;SDS011;13001;51.968;5.918;2023-03-14T09:13:18;197.60;;;185.70;;
22768;SDS011;13001;51.968;5.918;2023-03-14T09:15:49;240.40;;;225.85;;
22768;SDS011;13001;51.968;5.918;2023-03-14T09:18:14;272.87;;;254.97;;
22768;SDS011;13001;51.968;5.918;2023-03-14T09:20:41;277.43;;;258.68;;
22768;SDS011;13001;51.968;5.918;2023-03-14T09:23:08;262.57;;;244.93;;
22768;SDS011;13001;51.968;5.918;2023-03-14T09:25:36;274.60;;;256.68;;
22768;SDS011;13001;51.968;5.918;2023-03-14T09:28:03;267.40;;;248.50;;
22768;SDS011;13001;51.968;5.918;2023-03-14T09:30:31;265.65;;;246.45;;
22768;SDS011;13001;51.968;5.918;2023-03-14T09:32:58;241.38;;;224.37;;
22768;SDS011;13001;51.968;5.918;2023-03-14T09:35:26;216.00;;;201.25;;
22768;SDS011;13001;51.968;5.918;2023-03-14T09:37:53;195.92;;;183.32;;
22768;SDS011;13001;51.968;5.918;2023-03-14T09:40:21;214.97;;;201.47;;
22768;SDS011;13001;51.968;5.918;2023-03-14T09:42:50;283.52;;;264.25;;
22768;SDS011;13001;51.968;5.918;2023-03-14T09:45:25;313.85;;;291.38;;
22768;SDS011;13001;51.968;5.918;2023-03-14T09:47:53;468.35;;;434.05;;
22768;SDS011;13001;51.968;5.918;2023-03-14T09:50:21;615.85;;;570.57;;
22768;SDS011;13001;51.968;5.918;2023-03-14T09:52:49;602.45;;;560.48;;
22768;SDS011;13001;51.968;5.918;2023-03-14T09:55:22;549.73;;;513.50;;
22768;SDS011;13001;51.968;5.918;2023-03-14T09:57:47;553.03;;;516.10;;
22768;SDS011;13001;51.968;5.918;2023-03-14T10:00:16;539.58;;;502.95;;
22768;SDS011;13001;51.968;5.918;2023-03-14T10:03:45;499.50;;;465.40;;
22768;SDS011;13001;51.968;5.918;2023-03-14T10:05:23;553.55;;;515.58;;
22768;SDS011;13001;51.968;5.918;2023-03-14T10:07:51;481.40;;;448.37;;
22768;SDS011;13001;51.968;5.918;2023-03-14T10:10:19;483.00;;;450.42;;
22768;SDS011;13001;51.968;5.918;2023-03-14T10:12:48;520.23;;;484.90;;
22768;SDS011;13001;51.968;5.918;2023-03-14T10:15:21;505.13;;;470.73;;
22768;SDS011;13001;51.968;5.918;2023-03-14T10:17:49;497.07;;;462.62;;
22768;SDS011;13001;51.968;5.918;2023-03-14T10:20:25;406.50;;;379.85;;
22768;SDS011;13001;51.968;5.918;2023-03-14T10:22:48;493.35;;;459.15;;
22768;SDS011;13001;51.968;5.918;2023-03-14T10:25:25;507.43;;;471.95;;
22768;SDS011;13001;51.968;5.918;2023-03-14T10:27:46;521.63;;;485.48;;
22768;SDS011;13001;51.968;5.918;2023-03-14T10:30:27;452.70;;;421.98;;
22768;SDS011;13001;51.968;5.918;2023-03-14T10:32:42;529.00;;;492.42;;
22768;SDS011;13001;51.968;5.918;2023-03-14T10:35:20;673.52;;;625.08;;
22768;SDS011;13001;51.968;5.918;2023-03-14T10:37:59;669.97;;;621.03;;
22768;SDS011;13001;51.968;5.918;2023-03-14T10:40:31;628.20;;;582.20;;
22768;SDS011;13001;51.968;5.918;2023-03-14T10:42:59;619.83;;;575.13;;
22768;SDS011;13001;51.968;5.918;2023-03-14T10:45:38;574.80;;;533.45;;
22768;SDS011;13001;51.968;5.918;2023-03-14T10:48:07;490.20;;;457.00;;
22768;SDS011;13001;51.968;5.918;2023-03-14T10:50:34;632.02;;;586.20;;
22768;SDS011;13001;51.968;5.918;2023-03-14T10:53:02;629.77;;;583.73;;
22768;SDS011;13001;51.968;5.918;2023-03-14T10:55:42;614.77;;;569.80;;
22768;SDS011;13001;51.968;5.918;2023-03-14T10:58:27;617.17;;;572.23;;
22768;SDS011;13001;51.968;5.918;2023-03-14T11:03:42;517.03;;;480.77;;
22768;SDS011;13001;51.968;5.918;2023-03-14T11:06:24;682.73;;;632.33;;
22768;SDS011;13001;51.968;5.918;2023-03-14T11:08:53;628.77;;;581.90;;
22768;SDS011;13001;51.968;5.918;2023-03-14T11:11:21;587.62;;;544.15;;
22768;SDS011;13001;51.968;5.918;2023-03-14T11:16:28;422.60;;;392.57;;
22768;SDS011;13001;51.968;5.918;2023-03-14T11:19:17;354.02;;;329.40;;
22768;SDS011;13001;51.968;5.918;2023-03-14T11:29:37;546.58;;;509.80;;
22768;SDS011;13001;51.968;5.918;2023-03-14T11:32:11;592.65;;;550.55;;
22768;SDS011;13001;51.968;5.918;2023-03-14T11:34:50;529.25;;;491.88;;
22768;SDS011;13001;51.968;5.918;2023-03-14T11:37:33;648.90;;;601.57;;
22768;SDS011;13001;51.968;5.918;2023-03-14T11:42:40;405.05;;;377.05;;
22768;SDS011;13001;51.968;5.918;2023-03-14T11:45:29;597.85;;;556.97;;
22768;SDS011;13001;51.968;5.918;2023-03-14T11:47:39;631.33;;;585.25;;
22768;SDS011;13001;51.968;5.918;2023-03-14T11:50:24;608.02;;;564.10;;
22768;SDS011;13001;51.968;5.918;2023-03-14T11:52:53;371.90;;;348.10;;
22768;SDS011;13001;51.968;5.918;2023-03-14T11:57:53;343.60;;;321.73;;
22768;SDS011;13001;51.968;5.918;2023-03-14T12:00:23;412.57;;;384.60;;
22768;SDS011;13001;51.968;5.918;2023-03-14T12:05:50;335.27;;;313.65;;
22768;SDS011;13001;51.968;5.918;2023-03-14T12:08:19;338.35;;;316.50;;
22768;SDS011;13001;51.968;5.918;2023-03-14T12:10:54;295.65;;;276.75;;
22768;SDS011;13001;51.968;5.918;2023-03-14T12:13:23;421.75;;;391.30;;
22768;SDS011;13001;51.968;5.918;2023-03-14T12:18:29;447.02;;;415.92;;
22768;SDS011;13001;51.968;5.918;2023-03-14T12:21:03;370.90;;;345.82;;
22768;SDS011;13001;51.968;5.918;2023-03-14T12:23:41;405.20;;;378.80;;
22768;SDS011;13001;51.968;5.918;2023-03-14T12:28:48;301.25;;;280.55;;
22768;SDS011;13001;51.968;5.918;2023-03-14T12:34:29;194.40;;;180.12;;
22768;SDS011;13001;51.968;5.918;2023-03-14T12:37:17;251.85;;;233.85;;
22768;SDS011;13001;51.968;5.918;2023-03-14T12:39:05;308.95;;;288.30;;
22768;SDS011;13001;51.968;5.918;2023-03-14T12:41:40;355.57;;;332.32;;
22768;SDS011;13001;51.968;5.918;2023-03-14T12:46:52;280.20;;;261.05;;
22768;SDS011;13001;51.968;5.918;2023-03-14T12:49:19;268.57;;;249.82;;
22768;SDS011;13001;51.968;5.918;2023-03-14T12:51:54;260.05;;;241.88;;
22768;SDS011;13001;51.968;5.918;2023-03-14T12:57:10;223.27;;;205.90;;
22768;SDS011;13001;51.968;5.918;2023-03-14T12:59:36;159.07;;;146.98;;
22768;SDS011;13001;51.968;5.918;2023-03-14T13:04:36;173.45;;;160.50;;
22768;SDS011;13001;51.968;5.918;2023-03-14T13:07:04;196.20;;;181.65;;
22768;SDS011;13001;51.968;5.918;2023-03-14T13:12:00;213.65;;;198.05;;
22768;SDS011;13001;51.968;5.918;2023-03-14T13:14:29;264.12;;;245.85;;
22768;SDS011;13001;51.968;5.918;2023-03-14T13:17:02;273.65;;;254.43;;
22768;SDS011;13001;51.968;5.918;2023-03-14T13:19:27;243.75;;;226.52;;
22768;SDS011;13001;51.968;5.918;2023-03-14T13:22:05;265.90;;;247.33;;
22768;SDS011;13001;51.968;5.918;2023-03-14T13:24:33;178.97;;;166.10;;
22768;SDS011;13001;51.968;5.918;2023-03-14T13:27:01;174.80;;;162.50;;
22768;SDS011;13001;51.968;5.918;2023-03-14T13:29:29;178.53;;;165.65;;
22768;SDS011;13001;51.968;5.918;2023-03-14T13:34:45;176.47;;;163.67;;
22768;SDS011;13001;51.968;5.918;2023-03-14T13:37:15;137.45;;;127.40;;
22768;SDS011;13001;51.968;5.918;2023-03-14T13:39:43;69.90;;;65.17;;
22768;SDS011;13001;51.968;5.918;2023-03-14T13:42:13;78.55;;;73.10;;
22768;SDS011;13001;51.968;5.918;2023-03-14T13:44:41;92.13;;;85.57;;
22768;SDS011;13001;51.968;5.918;2023-03-14T13:47:15;179.23;;;165.92;;
22768;SDS011;13001;51.968;5.918;2023-03-14T13:49:43;75.20;;;69.92;;
22768;SDS011;13001;51.968;5.918;2023-03-14T13:52:29;144.57;;;134.53;;
22768;SDS011;13001;51.968;5.918;2023-03-14T13:54:57;106.55;;;99.32;;
22768;SDS011;13001;51.968;5.918;2023-03-14T13:57:26;114.90;;;107.35;;
22768;SDS011;13001;51.968;5.918;2023-03-14T14:00:04;92.88;;;86.57;;
22768;SDS011;13001;51.968;5.918;2023-03-14T14:02:29;109.40;;;101.95;;
22768;SDS011;13001;51.968;5.918;2023-03-14T14:04:57;98.37;;;91.57;;
22768;SDS011;13001;51.968;5.918;2023-03-14T14:07:25;98.30;;;91.53;;
22768;SDS011;13001;51.968;5.918;2023-03-14T14:09:54;102.92;;;95.87;;
22768;SDS011;13001;51.968;5.918;2023-03-14T14:12:23;133.07;;;123.78;;
22768;SDS011;13001;51.968;5.918;2023-03-14T14:14:57;149.42;;;138.68;;
22768;SDS011;13001;51.968;5.918;2023-03-14T14:17:31;213.32;;;197.45;;
22768;SDS011;13001;51.968;5.918;2023-03-14T14:20:00;207.57;;;193.28;;
22768;SDS011;13001;51.968;5.918;2023-03-14T14:22:29;143.13;;;133.45;;
22768;SDS011;13001;51.968;5.918;2023-03-14T14:24:57;211.80;;;196.72;;
22768;SDS011;13001;51.968;5.918;2023-03-14T14:27:46;156.60;;;146.00;;
22768;SDS011;13001;51.968;5.918;2023-03-14T14:30:04;113.45;;;105.60;;
22768;SDS011;13001;51.968;5.918;2023-03-14T14:32:33;108.52;;;100.80;;
22768;SDS011;13001;51.968;5.918;2023-03-14T14:34:59;112.32;;;104.78;;
22768;SDS011;13001;51.968;5.918;2023-03-14T14:37:31;176.42;;;163.55;;
22768;SDS011;13001;51.968;5.918;2023-03-14T14:39:59;117.15;;;108.92;;
22768;SDS011;13001;51.968;5.918;2023-03-14T14:42:28;113.85;;;105.87;;
22768;SDS011;13001;51.968;5.918;2023-03-14T14:44:56;122.53;;;113.97;;
22768;SDS011;13001;51.968;5.918;2023-03-14T14:47:25;98.23;;;91.83;;